sensor_id;sensor_type;location;lat;lon;timestamp;temperature;humidity
72604;DHT22;60645;56.968;24.196;2024-03-08T00:01:33;-0.10;96.00
72604;DHT22;60645;56.968;24.196;2024-03-08T00:04:00;-0.20;96.20
72604;DHT22;60645;56.968;24.196;2024-03-08T00:06:26;-0.10;95.90
72604;DHT22;60645;56.968;24.196;2024-03-08T00:08:53;-0.20;95.80
72604;DHT22;60645;56.968;24.196;2024-03-08T00:11:20;-0.30;95.60
72604;DHT22;60645;56.968;24.196;2024-03-08T00:13:48;-0.50;95.80
72604;DHT22;60645;56.968;24.196;2024-03-08T00:16:14;-0.20;95.40
72604;DHT22;60645;56.968;24.196;2024-03-08T00:18:41;-0.20;95.10
72604;DHT22;60645;56.968;24.196;2024-03-08T00:21:08;-0.20;94.80
72604;DHT22;60645;56.968;24.196;2024-03-08T00:23:36;-0.30;95.00
72604;DHT22;60645;56.968;24.196;2024-03-08T00:26:03;-0.30;95.40
72604;DHT22;60645;56.968;24.196;2024-03-08T00:28:30;-0.20;95.40
72604;DHT22;60645;56.968;24.196;2024-03-08T00:30:57;-0.20;94.40
72604;DHT22;60645;56.968;24.196;2024-03-08T00:33:24;-0.20;94.20
72604;DHT22;60645;56.968;24.196;2024-03-08T00:35:51;-0.30;94.50
72604;DHT22;60645;56.968;24.196;2024-03-08T00:38:18;-0.40;94.40
72604;DHT22;60645;56.968;24.196;2024-03-08T00:40:45;-0.40;94.20
72604;DHT22;60645;56.968;24.196;2024-03-08T00:43:12;-0.20;93.80
72604;DHT22;60645;56.968;24.196;2024-03-08T00:45:39;-0.50;93.70
72604;DHT22;60645;56.968;24.196;2024-03-08T00:48:09;-0.50;93.90
72604;DHT22;60645;56.968;24.196;2024-03-08T00:50:37;-0.60;94.40
72604;DHT22;60645;56.968;24.196;2024-03-08T00:53:04;-0.40;94.20
72604;DHT22;60645;56.968;24.196;2024-03-08T00:55:31;-0.40;94.40
72604;DHT22;60645;56.968;24.196;2024-03-08T00:57:58;-0.40;94.50
72604;DHT22;60645;56.968;24.196;2024-03-08T01:00:24;-0.40;94.20
72604;DHT22;60645;56.968;24.196;2024-03-08T01:02:52;-0.20;94.20
72604;DHT22;60645;56.968;24.196;2024-03-08T01:05:19;-0.20;93.90
72604;DHT22;60645;56.968;24.196;2024-03-08T01:07:45;-0.30;93.70
72604;DHT22;60645;56.968;24.196;2024-03-08T01:10:13;-0.30;94.00
72604;DHT22;60645;56.968;24.196;2024-03-08T01:12:39;-0.30;94.10
72604;DHT22;60645;56.968;24.196;2024-03-08T01:15:07;-0.40;93.50
72604;DHT22;60645;56.968;24.196;2024-03-08T01:17:34;-0.30;93.60
72604;DHT22;60645;56.968;24.196;2024-03-08T01:20:00;-0.70;93.80
72604;DHT22;60645;56.968;24.196;2024-03-08T01:22:27;-0.40;93.80
72604;DHT22;60645;56.968;24.196;2024-03-08T01:24:56;-0.50;93.80
72604;DHT22;60645;56.968;24.196;2024-03-08T01:27:23;-0.40;93.90
72604;DHT22;60645;56.968;24.196;2024-03-08T01:29:51;-0.50;94.30
72604;DHT22;60645;56.968;24.196;2024-03-08T01:32:18;-0.60;94.10
72604;DHT22;60645;56.968;24.196;2024-03-08T01:34:46;-0.50;93.80
72604;DHT22;60645;56.968;24.196;2024-03-08T01:37:13;-0.60;94.00
72604;DHT22;60645;56.968;24.196;2024-03-08T01:39:41;-0.70;94.00
72604;DHT22;60645;56.968;24.196;2024-03-08T01:42:07;-0.70;94.20
72604;DHT22;60645;56.968;24.196;2024-03-08T01:44:35;-0.90;94.30
72604;DHT22;60645;56.968;24.196;2024-03-08T01:47:01;-0.60;94.50
72604;DHT22;60645;56.968;24.196;2024-03-08T01:49:28;-0.70;94.50
72604;DHT22;60645;56.968;24.196;2024-03-08T01:51:55;-0.50;94.30
72604;DHT22;60645;56.968;24.196;2024-03-08T01:54:23;-0.60;94.30
72604;DHT22;60645;56.968;24.196;2024-03-08T01:56:51;-0.60;94.60
72604;DHT22;60645;56.968;24.196;2024-03-08T01:59:19;-0.80;94.50
72604;DHT22;60645;56.968;24.196;2024-03-08T02:01:46;-0.80;94.60
72604;DHT22;60645;56.968;24.196;2024-03-08T02:04:14;-0.70;94.70
72604;DHT22;60645;56.968;24.196;2024-03-08T02:06:41;-0.60;94.70
72604;DHT22;60645;56.968;24.196;2024-03-08T02:09:08;-0.70;94.20
72604;DHT22;60645;56.968;24.196;2024-03-08T02:11:35;-0.80;94.60
72604;DHT22;60645;56.968;24.196;2024-03-08T02:14:03;-0.80;94.90
72604;DHT22;60645;56.968;24.196;2024-03-08T02:16:32;-0.70;94.40
72604;DHT22;60645;56.968;24.196;2024-03-08T02:18:59;-0.90;94.30
72604;DHT22;60645;56.968;24.196;2024-03-08T02:21:26;-0.80;94.60
72604;DHT22;60645;56.968;24.196;2024-03-08T02:23:53;-0.90;94.80
72604;DHT22;60645;56.968;24.196;2024-03-08T02:26:20;-0.90;94.90
72604;DHT22;60645;56.968;24.196;2024-03-08T02:28:48;-0.70;94.80
72604;DHT22;60645;56.968;24.196;2024-03-08T02:31:15;-0.60;94.60
72604;DHT22;60645;56.968;24.196;2024-03-08T02:33:43;-0.70;94.70
72604;DHT22;60645;56.968;24.196;2024-03-08T02:36:10;-0.80;94.50
72604;DHT22;60645;56.968;24.196;2024-03-08T02:38:37;-0.70;94.30
72604;DHT22;60645;56.968;24.196;2024-03-08T02:41:04;-0.60;94.00
72604;DHT22;60645;56.968;24.196;2024-03-08T02:43:31;-0.80;94.50
72604;DHT22;60645;56.968;24.196;2024-03-08T02:45:58;-0.80;94.70
72604;DHT22;60645;56.968;24.196;2024-03-08T02:48:26;-0.60;94.50
72604;DHT22;60645;56.968;24.196;2024-03-08T02:50:53;-0.60;94.10
72604;DHT22;60645;56.968;24.196;2024-03-08T02:53:20;-0.80;94.40
72604;DHT22;60645;56.968;24.196;2024-03-08T02:55:47;-0.80;95.10
72604;DHT22;60645;56.968;24.196;2024-03-08T02:58:14;-0.70;94.70
72604;DHT22;60645;56.968;24.196;2024-03-08T03:00:41;-0.70;94.90
72604;DHT22;60645;56.968;24.196;2024-03-08T03:03:11;-0.50;94.70
72604;DHT22;60645;56.968;24.196;2024-03-08T03:05:38;-0.80;94.60
72604;DHT22;60645;56.968;24.196;2024-03-08T03:08:13;-0.50;94.70
72604;DHT22;60645;56.968;24.196;2024-03-08T03:10:39;-0.70;95.10
72604;DHT22;60645;56.968;24.196;2024-03-08T03:13:06;-0.60;95.20
72604;DHT22;60645;56.968;24.196;2024-03-08T03:15:35;-0.50;95.00
72604;DHT22;60645;56.968;24.196;2024-03-08T03:18:04;-0.60;95.00
72604;DHT22;60645;56.968;24.196;2024-03-08T03:20:32;-0.70;95.20
72604;DHT22;60645;56.968;24.196;2024-03-08T03:23:00;-0.60;95.20
72604;DHT22;60645;56.968;24.196;2024-03-08T03:25:29;-0.50;94.80
72604;DHT22;60645;56.968;24.196;2024-03-08T03:28:03;-0.40;94.80
72604;DHT22;60645;56.968;24.196;2024-03-08T03:30:31;-0.50;94.60
72604;DHT22;60645;56.968;24.196;2024-03-08T03:33:01;-0.60;94.60
72604;DHT22;60645;56.968;24.196;2024-03-08T03:35:29;-0.60;94.70
72604;DHT22;60645;56.968;24.196;2024-03-08T03:37:56;-0.60;94.80
72604;DHT22;60645;56.968;24.196;2024-03-08T03:40:37;-0.60;94.40
72604;DHT22;60645;56.968;24.196;2024-03-08T03:43:05;-0.50;94.50
72604;DHT22;60645;56.968;24.196;2024-03-08T03:45:31;-0.60;94.20
72604;DHT22;60645;56.968;24.196;2024-03-08T03:48:06;-0.70;94.40
72604;DHT22;60645;56.968;24.196;2024-03-08T03:50:34;-0.60;94.60
72604;DHT22;60645;56.968;24.196;2024-03-08T03:53:03;-0.30;94.60
72604;DHT22;60645;56.968;24.196;2024-03-08T03:55:30;-0.60;94.50
72604;DHT22;60645;56.968;24.196;2024-03-08T03:57:57;-0.40;94.20
72604;DHT22;60645;56.968;24.196;2024-03-08T04:00:26;-0.30;94.10
72604;DHT22;60645;56.968;24.196;2024-03-08T04:02:54;-0.50;93.50
72604;DHT22;60645;56.968;24.196;2024-03-08T04:05:21;-0.60;93.60
72604;DHT22;60645;56.968;24.196;2024-03-08T04:07:48;-0.50;94.00
72604;DHT22;60645;56.968;24.196;2024-03-08T04:10:15;-0.40;93.90
72604;DHT22;60645;56.968;24.196;2024-03-08T04:12:42;-0.70;94.40
72604;DHT22;60645;56.968;24.196;2024-03-08T04:15:09;-0.60;94.20
72604;DHT22;60645;56.968;24.196;2024-03-08T04:17:38;-0.50;94.50
72604;DHT22;60645;56.968;24.196;2024-03-08T04:20:05;-0.40;94.40
72604;DHT22;60645;56.968;24.196;2024-03-08T04:22:42;-0.50;93.90
72604;DHT22;60645;56.968;24.196;2024-03-08T04:25:11;-0.50;94.10
72604;DHT22;60645;56.968;24.196;2024-03-08T04:27:38;-0.30;94.00
72604;DHT22;60645;56.968;24.196;2024-03-08T04:30:05;-0.50;94.30
72604;DHT22;60645;56.968;24.196;2024-03-08T04:32:35;-0.50;94.20
72604;DHT22;60645;56.968;24.196;2024-03-08T04:35:02;-0.40;93.90
72604;DHT22;60645;56.968;24.196;2024-03-08T04:37:30;-0.60;93.90
72604;DHT22;60645;56.968;24.196;2024-03-08T04:39:58;-0.50;93.90
72604;DHT22;60645;56.968;24.196;2024-03-08T04:42:26;-0.60;94.00
72604;DHT22;60645;56.968;24.196;2024-03-08T04:44:53;-0.70;94.10
72604;DHT22;60645;56.968;24.196;2024-03-08T04:47:20;-0.50;94.50
72604;DHT22;60645;56.968;24.196;2024-03-08T04:49:47;-0.50;94.20
72604;DHT22;60645;56.968;24.196;2024-03-08T04:52:14;-0.60;94.60
72604;DHT22;60645;56.968;24.196;2024-03-08T04:54:41;-0.50;94.50
72604;DHT22;60645;56.968;24.196;2024-03-08T04:57:08;-0.40;94.80
72604;DHT22;60645;56.968;24.196;2024-03-08T04:59:35;-0.40;94.50
72604;DHT22;60645;56.968;24.196;2024-03-08T05:02:03;-0.40;94.40
72604;DHT22;60645;56.968;24.196;2024-03-08T05:04:30;-0.40;94.70
72604;DHT22;60645;56.968;24.196;2024-03-08T05:06:57;-0.50;94.70
72604;DHT22;60645;56.968;24.196;2024-03-08T05:09:24;-0.30;94.60
72604;DHT22;60645;56.968;24.196;2024-03-08T05:11:51;-0.60;94.60
72604;DHT22;60645;56.968;24.196;2024-03-08T05:14:18;-0.50;94.70
72604;DHT22;60645;56.968;24.196;2024-03-08T05:16:47;-0.40;94.40
72604;DHT22;60645;56.968;24.196;2024-03-08T05:19:19;-0.50;94.50
72604;DHT22;60645;56.968;24.196;2024-03-08T05:21:47;-0.40;94.70
72604;DHT22;60645;56.968;24.196;2024-03-08T05:24:14;-0.50;94.50
72604;DHT22;60645;56.968;24.196;2024-03-08T05:26:43;-0.30;94.00
72604;DHT22;60645;56.968;24.196;2024-03-08T05:29:11;-0.70;94.10
72604;DHT22;60645;56.968;24.196;2024-03-08T05:31:51;-0.70;94.40
72604;DHT22;60645;56.968;24.196;2024-03-08T05:34:22;-0.60;94.40
72604;DHT22;60645;56.968;24.196;2024-03-08T05:36:49;-0.60;94.40
72604;DHT22;60645;56.968;24.196;2024-03-08T05:39:18;-0.70;94.10
72604;DHT22;60645;56.968;24.196;2024-03-08T05:41:45;-0.60;94.30
72604;DHT22;60645;56.968;24.196;2024-03-08T05:44:13;-0.60;94.10
72604;DHT22;60645;56.968;24.196;2024-03-08T05:46:40;-0.90;94.20
72604;DHT22;60645;56.968;24.196;2024-03-08T05:49:06;-0.70;94.10
72604;DHT22;60645;56.968;24.196;2024-03-08T05:51:35;-0.80;94.10
72604;DHT22;60645;56.968;24.196;2024-03-08T05:54:02;-0.80;93.80
72604;DHT22;60645;56.968;24.196;2024-03-08T05:56:30;-0.60;94.10
72604;DHT22;60645;56.968;24.196;2024-03-08T05:58:57;-0.60;93.80
72604;DHT22;60645;56.968;24.196;2024-03-08T06:01:28;-0.50;93.70
72604;DHT22;60645;56.968;24.196;2024-03-08T06:03:55;-0.50;93.70
72604;DHT22;60645;56.968;24.196;2024-03-08T06:06:24;-0.60;93.40
72604;DHT22;60645;56.968;24.196;2024-03-08T06:08:51;-0.50;93.60
72604;DHT22;60645;56.968;24.196;2024-03-08T06:11:20;-0.40;93.10
72604;DHT22;60645;56.968;24.196;2024-03-08T06:13:47;-0.50;92.80
72604;DHT22;60645;56.968;24.196;2024-03-08T06:16:15;-0.60;93.00
72604;DHT22;60645;56.968;24.196;2024-03-08T06:18:42;-0.50;93.20
72604;DHT22;60645;56.968;24.196;2024-03-08T06:21:09;-0.60;92.70
72604;DHT22;60645;56.968;24.196;2024-03-08T06:23:38;-0.50;92.80
72604;DHT22;60645;56.968;24.196;2024-03-08T06:26:06;-0.60;92.90
72604;DHT22;60645;56.968;24.196;2024-03-08T06:28:33;-0.30;92.40
72604;DHT22;60645;56.968;24.196;2024-03-08T06:31:02;-0.50;92.40
72604;DHT22;60645;56.968;24.196;2024-03-08T06:33:29;-0.40;92.70
72604;DHT22;60645;56.968;24.196;2024-03-08T06:35:57;-0.30;92.60
72604;DHT22;60645;56.968;24.196;2024-03-08T06:38:25;-0.30;92.40
72604;DHT22;60645;56.968;24.196;2024-03-08T06:40:52;-0.40;92.90
72604;DHT22;60645;56.968;24.196;2024-03-08T06:43:19;-0.50;92.80
72604;DHT22;60645;56.968;24.196;2024-03-08T06:45:46;-0.30;92.90
72604;DHT22;60645;56.968;24.196;2024-03-08T06:48:19;-0.20;92.00
72604;DHT22;60645;56.968;24.196;2024-03-08T06:50:47;-0.40;92.50
72604;DHT22;60645;56.968;24.196;2024-03-08T06:53:14;-0.10;92.90
72604;DHT22;60645;56.968;24.196;2024-03-08T06:55:44;-0.20;92.70
72604;DHT22;60645;56.968;24.196;2024-03-08T06:58:11;0.00;92.10
72604;DHT22;60645;56.968;24.196;2024-03-08T07:00:38;-0.20;92.10
72604;DHT22;60645;56.968;24.196;2024-03-08T07:03:08;-0.10;92.30
72604;DHT22;60645;56.968;24.196;2024-03-08T07:05:39;-0.10;92.40
72604;DHT22;60645;56.968;24.196;2024-03-08T07:08:07;0.00;92.40
72604;DHT22;60645;56.968;24.196;2024-03-08T07:10:34;-0.10;92.60
72604;DHT22;60645;56.968;24.196;2024-03-08T07:13:01;0.00;92.20
72604;DHT22;60645;56.968;24.196;2024-03-08T07:15:28;0.10;91.70
72604;DHT22;60645;56.968;24.196;2024-03-08T07:17:55;0.10;91.80
72604;DHT22;60645;56.968;24.196;2024-03-08T07:20:22;0.20;91.90
72604;DHT22;60645;56.968;24.196;2024-03-08T07:22:49;0.00;92.30
72604;DHT22;60645;56.968;24.196;2024-03-08T07:25:19;0.10;92.20
72604;DHT22;60645;56.968;24.196;2024-03-08T07:27:49;0.10;92.00
72604;DHT22;60645;56.968;24.196;2024-03-08T07:30:16;0.10;92.10
72604;DHT22;60645;56.968;24.196;2024-03-08T07:33:04;0.10;92.20
72604;DHT22;60645;56.968;24.196;2024-03-08T07:35:31;0.30;91.90
72604;DHT22;60645;56.968;24.196;2024-03-08T07:37:58;0.30;91.90
72604;DHT22;60645;56.968;24.196;2024-03-08T07:40:26;0.20;91.70
72604;DHT22;60645;56.968;24.196;2024-03-08T07:42:53;0.30;91.60
72604;DHT22;60645;56.968;24.196;2024-03-08T07:45:20;0.30;91.80
72604;DHT22;60645;56.968;24.196;2024-03-08T07:47:48;0.30;91.70
72604;DHT22;60645;56.968;24.196;2024-03-08T07:50:17;0.40;91.90
72604;DHT22;60645;56.968;24.196;2024-03-08T07:52:46;0.50;91.60
72604;DHT22;60645;56.968;24.196;2024-03-08T07:55:13;0.60;91.10
72604;DHT22;60645;56.968;24.196;2024-03-08T07:57:40;0.60;91.10
72604;DHT22;60645;56.968;24.196;2024-03-08T08:00:07;0.40;90.50
72604;DHT22;60645;56.968;24.196;2024-03-08T08:02:35;0.50;90.90
72604;DHT22;60645;56.968;24.196;2024-03-08T08:05:06;0.50;91.10
72604;DHT22;60645;56.968;24.196;2024-03-08T08:07:33;0.80;90.70
72604;DHT22;60645;56.968;24.196;2024-03-08T08:09:59;0.80;90.30
72604;DHT22;60645;56.968;24.196;2024-03-08T08:12:26;0.90;89.90
72604;DHT22;60645;56.968;24.196;2024-03-08T08:14:55;0.80;90.20
72604;DHT22;60645;56.968;24.196;2024-03-08T08:17:21;0.90;90.00
72604;DHT22;60645;56.968;24.196;2024-03-08T08:19:48;0.60;90.50
72604;DHT22;60645;56.968;24.196;2024-03-08T08:22:15;0.80;90.20
72604;DHT22;60645;56.968;24.196;2024-03-08T08:24:42;1.10;90.30
72604;DHT22;60645;56.968;24.196;2024-03-08T08:27:09;0.80;90.20
72604;DHT22;60645;56.968;24.196;2024-03-08T08:29:36;1.10;90.10
72604;DHT22;60645;56.968;24.196;2024-03-08T08:32:02;1.00;90.50
72604;DHT22;60645;56.968;24.196;2024-03-08T08:34:30;1.00;90.80
72604;DHT22;60645;56.968;24.196;2024-03-08T08:36:58;1.20;90.50
72604;DHT22;60645;56.968;24.196;2024-03-08T08:39:25;1.10;89.60
72604;DHT22;60645;56.968;24.196;2024-03-08T08:41:52;1.20;89.30
72604;DHT22;60645;56.968;24.196;2024-03-08T08:44:21;0.90;89.90
72604;DHT22;60645;56.968;24.196;2024-03-08T08:46:48;1.10;90.00
72604;DHT22;60645;56.968;24.196;2024-03-08T08:49:18;1.00;89.90
72604;DHT22;60645;56.968;24.196;2024-03-08T08:51:50;1.00;89.60
72604;DHT22;60645;56.968;24.196;2024-03-08T08:54:18;1.00;90.40
72604;DHT22;60645;56.968;24.196;2024-03-08T08:56:45;1.00;90.10
72604;DHT22;60645;56.968;24.196;2024-03-08T08:59:12;1.00;90.50
72604;DHT22;60645;56.968;24.196;2024-03-08T09:01:40;1.00;90.20
72604;DHT22;60645;56.968;24.196;2024-03-08T09:04:07;0.90;90.70
72604;DHT22;60645;56.968;24.196;2024-03-08T09:06:35;1.10;90.30
72604;DHT22;60645;56.968;24.196;2024-03-08T09:09:02;1.20;90.00
72604;DHT22;60645;56.968;24.196;2024-03-08T09:11:32;1.20;89.80
72604;DHT22;60645;56.968;24.196;2024-03-08T09:13:59;0.90;90.00
72604;DHT22;60645;56.968;24.196;2024-03-08T09:16:26;1.20;89.70
72604;DHT22;60645;56.968;24.196;2024-03-08T09:18:54;1.10;89.40
72604;DHT22;60645;56.968;24.196;2024-03-08T09:21:21;1.30;89.30
72604;DHT22;60645;56.968;24.196;2024-03-08T09:23:49;1.00;88.90
72604;DHT22;60645;56.968;24.196;2024-03-08T09:26:16;1.20;89.10
72604;DHT22;60645;56.968;24.196;2024-03-08T09:28:54;1.20;89.30
72604;DHT22;60645;56.968;24.196;2024-03-08T09:31:24;1.20;89.50
72604;DHT22;60645;56.968;24.196;2024-03-08T09:33:51;1.30;89.70
72604;DHT22;60645;56.968;24.196;2024-03-08T09:36:18;1.20;90.10
72604;DHT22;60645;56.968;24.196;2024-03-08T09:38:45;1.40;89.20
72604;DHT22;60645;56.968;24.196;2024-03-08T09:41:12;1.20;89.70
72604;DHT22;60645;56.968;24.196;2024-03-08T09:43:39;1.30;88.80
72604;DHT22;60645;56.968;24.196;2024-03-08T09:46:06;1.20;89.40
72604;DHT22;60645;56.968;24.196;2024-03-08T09:48:34;1.00;89.60
72604;DHT22;60645;56.968;24.196;2024-03-08T09:51:02;1.20;89.80
72604;DHT22;60645;56.968;24.196;2024-03-08T09:53:29;1.20;89.20
72604;DHT22;60645;56.968;24.196;2024-03-08T09:55:56;1.20;88.80
72604;DHT22;60645;56.968;24.196;2024-03-08T09:58:23;1.00;89.00
72604;DHT22;60645;56.968;24.196;2024-03-08T10:00:59;1.00;89.10
72604;DHT22;60645;56.968;24.196;2024-03-08T10:03:31;0.90;89.70
72604;DHT22;60645;56.968;24.196;2024-03-08T10:06:01;1.10;89.50
72604;DHT22;60645;56.968;24.196;2024-03-08T10:08:28;1.00;89.70
72604;DHT22;60645;56.968;24.196;2024-03-08T10:10:56;1.30;88.80
72604;DHT22;60645;56.968;24.196;2024-03-08T10:13:25;1.30;88.90
72604;DHT22;60645;56.968;24.196;2024-03-08T10:15:54;1.20;89.00
72604;DHT22;60645;56.968;24.196;2024-03-08T10:18:21;1.00;89.00
72604;DHT22;60645;56.968;24.196;2024-03-08T10:21:06;1.10;89.20
72604;DHT22;60645;56.968;24.196;2024-03-08T10:23:34;1.10;89.10
72604;DHT22;60645;56.968;24.196;2024-03-08T10:26:14;1.10;89.00
72604;DHT22;60645;56.968;24.196;2024-03-08T10:28:42;1.00;88.90
72604;DHT22;60645;56.968;24.196;2024-03-08T10:31:09;1.10;89.00
72604;DHT22;60645;56.968;24.196;2024-03-08T10:33:36;0.90;89.30
72604;DHT22;60645;56.968;24.196;2024-03-08T10:36:06;1.00;89.70
72604;DHT22;60645;56.968;24.196;2024-03-08T10:38:35;1.10;89.60
72604;DHT22;60645;56.968;24.196;2024-03-08T10:41:03;0.90;89.70
72604;DHT22;60645;56.968;24.196;2024-03-08T10:43:32;0.80;89.40
72604;DHT22;60645;56.968;24.196;2024-03-08T10:46:11;0.90;88.90
72604;DHT22;60645;56.968;24.196;2024-03-08T10:48:43;0.90;89.10
72604;DHT22;60645;56.968;24.196;2024-03-08T10:51:11;0.90;89.40
72604;DHT22;60645;56.968;24.196;2024-03-08T10:53:38;0.60;90.30
72604;DHT22;60645;56.968;24.196;2024-03-08T10:56:08;0.80;90.40
72604;DHT22;60645;56.968;24.196;2024-03-08T10:58:36;0.90;89.60
72604;DHT22;60645;56.968;24.196;2024-03-08T11:01:04;1.00;89.10
72604;DHT22;60645;56.968;24.196;2024-03-08T11:03:54;0.90;89.50
72604;DHT22;60645;56.968;24.196;2024-03-08T11:06:29;0.90;89.10
72604;DHT22;60645;56.968;24.196;2024-03-08T11:08:57;0.80;88.30
72604;DHT22;60645;56.968;24.196;2024-03-08T11:11:25;1.00;89.20
72604;DHT22;60645;56.968;24.196;2024-03-08T11:13:58;0.90;88.70
72604;DHT22;60645;56.968;24.196;2024-03-08T11:18:57;1.00;88.80
72604;DHT22;60645;56.968;24.196;2024-03-08T11:21:27;1.00;89.40
72604;DHT22;60645;56.968;24.196;2024-03-08T11:23:58;1.10;89.20
72604;DHT22;60645;56.968;24.196;2024-03-08T11:26:25;1.00;89.50
72604;DHT22;60645;56.968;24.196;2024-03-08T11:28:52;1.10;88.90
72604;DHT22;60645;56.968;24.196;2024-03-08T11:31:23;1.20;88.30
72604;DHT22;60645;56.968;24.196;2024-03-08T11:33:51;1.20;87.50
72604;DHT22;60645;56.968;24.196;2024-03-08T11:36:23;1.50;86.30
72604;DHT22;60645;56.968;24.196;2024-03-08T11:38:51;1.80;85.00
72604;DHT22;60645;56.968;24.196;2024-03-08T11:41:19;1.50;84.00
72604;DHT22;60645;56.968;24.196;2024-03-08T11:43:47;1.40;85.00
72604;DHT22;60645;56.968;24.196;2024-03-08T11:46:15;1.30;85.00
72604;DHT22;60645;56.968;24.196;2024-03-08T11:48:43;1.30;84.10
72604;DHT22;60645;56.968;24.196;2024-03-08T11:51:14;1.30;83.50
72604;DHT22;60645;56.968;24.196;2024-03-08T11:53:41;1.40;83.50
72604;DHT22;60645;56.968;24.196;2024-03-08T11:56:13;1.40;84.30
72604;DHT22;60645;56.968;24.196;2024-03-08T11:58:40;1.50;83.70
72604;DHT22;60645;56.968;24.196;2024-03-08T12:01:08;1.50;83.80
72604;DHT22;60645;56.968;24.196;2024-03-08T12:03:39;1.40;83.10
72604;DHT22;60645;56.968;24.196;2024-03-08T12:06:09;1.60;83.20
72604;DHT22;60645;56.968;24.196;2024-03-08T12:08:36;1.60;83.00
72604;DHT22;60645;56.968;24.196;2024-03-08T12:11:03;1.70;82.60
72604;DHT22;60645;56.968;24.196;2024-03-08T12:13:34;1.60;82.80
72604;DHT22;60645;56.968;24.196;2024-03-08T12:16:04;1.70;83.20
72604;DHT22;60645;56.968;24.196;2024-03-08T12:18:34;1.70;82.90
72604;DHT22;60645;56.968;24.196;2024-03-08T12:23:32;1.90;82.60
72604;DHT22;60645;56.968;24.196;2024-03-08T12:26:23;1.80;82.40
72604;DHT22;60645;56.968;24.196;2024-03-08T12:28:50;1.80;82.50
72604;DHT22;60645;56.968;24.196;2024-03-08T12:31:17;1.70;83.10
72604;DHT22;60645;56.968;24.196;2024-03-08T12:36:15;1.90;82.30
72604;DHT22;60645;56.968;24.196;2024-03-08T12:38:45;1.90;82.10
72604;DHT22;60645;56.968;24.196;2024-03-08T12:41:18;2.30;81.80
72604;DHT22;60645;56.968;24.196;2024-03-08T12:43:46;2.40;80.10
72604;DHT22;60645;56.968;24.196;2024-03-08T12:46:15;2.20;79.80
72604;DHT22;60645;56.968;24.196;2024-03-08T12:48:42;2.40;79.30
72604;DHT22;60645;56.968;24.196;2024-03-08T12:51:13;2.30;79.20
72604;DHT22;60645;56.968;24.196;2024-03-08T12:53:41;2.20;79.90
72604;DHT22;60645;56.968;24.196;2024-03-08T12:56:11;2.30;78.90
72604;DHT22;60645;56.968;24.196;2024-03-08T12:58:38;2.30;77.90
72604;DHT22;60645;56.968;24.196;2024-03-08T13:01:05;2.20;78.60
72604;DHT22;60645;56.968;24.196;2024-03-08T13:03:34;2.00;79.10
72604;DHT22;60645;56.968;24.196;2024-03-08T13:06:05;1.80;80.10
72604;DHT22;60645;56.968;24.196;2024-03-08T13:08:35;1.70;81.20
72604;DHT22;60645;56.968;24.196;2024-03-08T13:11:02;1.60;81.10
72604;DHT22;60645;56.968;24.196;2024-03-08T13:13:30;1.30;81.60
72604;DHT22;60645;56.968;24.196;2024-03-08T13:15:57;1.40;82.30
72604;DHT22;60645;56.968;24.196;2024-03-08T13:18:26;1.60;82.40
72604;DHT22;60645;56.968;24.196;2024-03-08T13:20:54;1.40;82.40
72604;DHT22;60645;56.968;24.196;2024-03-08T13:23:21;1.60;81.90
72604;DHT22;60645;56.968;24.196;2024-03-08T13:25:48;1.50;81.80
72604;DHT22;60645;56.968;24.196;2024-03-08T13:28:16;1.50;81.80
72604;DHT22;60645;56.968;24.196;2024-03-08T13:30:43;1.50;81.80
72604;DHT22;60645;56.968;24.196;2024-03-08T13:33:11;1.40;81.30
72604;DHT22;60645;56.968;24.196;2024-03-08T13:35:38;1.30;81.50
72604;DHT22;60645;56.968;24.196;2024-03-08T13:38:04;1.00;82.20
72604;DHT22;60645;56.968;24.196;2024-03-08T13:40:32;0.90;82.90
72604;DHT22;60645;56.968;24.196;2024-03-08T13:42:59;0.90;83.60
72604;DHT22;60645;56.968;24.196;2024-03-08T13:45:28;1.20;83.30
72604;DHT22;60645;56.968;24.196;2024-03-08T13:47:55;1.00;83.40
72604;DHT22;60645;56.968;24.196;2024-03-08T13:50:22;0.90;83.70
72604;DHT22;60645;56.968;24.196;2024-03-08T13:52:49;0.70;84.40
72604;DHT22;60645;56.968;24.196;2024-03-08T13:55:20;0.80;84.70
72604;DHT22;60645;56.968;24.196;2024-03-08T13:57:48;0.80;84.80
72604;DHT22;60645;56.968;24.196;2024-03-08T14:00:15;0.90;84.50
72604;DHT22;60645;56.968;24.196;2024-03-08T14:02:42;1.00;85.20
72604;DHT22;60645;56.968;24.196;2024-03-08T14:05:09;0.90;85.40
72604;DHT22;60645;56.968;24.196;2024-03-08T14:07:38;0.90;84.60
72604;DHT22;60645;56.968;24.196;2024-03-08T14:10:05;0.80;84.40
72604;DHT22;60645;56.968;24.196;2024-03-08T14:12:33;0.80;84.40
72604;DHT22;60645;56.968;24.196;2024-03-08T14:15:01;0.80;84.80
72604;DHT22;60645;56.968;24.196;2024-03-08T14:17:28;0.80;84.30
72604;DHT22;60645;56.968;24.196;2024-03-08T14:19:57;0.80;83.70
72604;DHT22;60645;56.968;24.196;2024-03-08T14:22:26;0.90;84.70
72604;DHT22;60645;56.968;24.196;2024-03-08T14:24:52;0.90;84.40
72604;DHT22;60645;56.968;24.196;2024-03-08T14:27:22;0.90;83.50
72604;DHT22;60645;56.968;24.196;2024-03-08T14:29:49;0.60;83.40
72604;DHT22;60645;56.968;24.196;2024-03-08T14:32:16;0.40;83.90
72604;DHT22;60645;56.968;24.196;2024-03-08T14:34:46;0.40;84.80
72604;DHT22;60645;56.968;24.196;2024-03-08T14:37:14;0.40;86.00
72604;DHT22;60645;56.968;24.196;2024-03-08T14:39:41;0.50;84.40
72604;DHT22;60645;56.968;24.196;2024-03-08T14:42:08;0.30;85.00
72604;DHT22;60645;56.968;24.196;2024-03-08T14:44:39;0.40;84.10
72604;DHT22;60645;56.968;24.196;2024-03-08T14:47:06;0.40;84.80
72604;DHT22;60645;56.968;24.196;2024-03-08T14:49:33;0.20;84.50
72604;DHT22;60645;56.968;24.196;2024-03-08T14:52:01;0.30;84.00
72604;DHT22;60645;56.968;24.196;2024-03-08T14:54:27;0.30;84.00
72604;DHT22;60645;56.968;24.196;2024-03-08T14:56:54;0.20;84.60
72604;DHT22;60645;56.968;24.196;2024-03-08T14:59:23;0.10;85.00
72604;DHT22;60645;56.968;24.196;2024-03-08T15:01:52;0.10;85.00
72604;DHT22;60645;56.968;24.196;2024-03-08T15:04:19;0.00;85.00
72604;DHT22;60645;56.968;24.196;2024-03-08T15:06:46;0.20;84.80
72604;DHT22;60645;56.968;24.196;2024-03-08T15:09:18;0.00;84.70
72604;DHT22;60645;56.968;24.196;2024-03-08T15:11:47;0.10;85.40
72604;DHT22;60645;56.968;24.196;2024-03-08T15:14:17;0.00;85.70
72604;DHT22;60645;56.968;24.196;2024-03-08T15:16:46;0.10;85.60
72604;DHT22;60645;56.968;24.196;2024-03-08T15:19:14;0.10;85.80
72604;DHT22;60645;56.968;24.196;2024-03-08T15:21:42;0.10;85.40
72604;DHT22;60645;56.968;24.196;2024-03-08T15:24:12;0.10;85.50
72604;DHT22;60645;56.968;24.196;2024-03-08T15:26:42;0.00;85.40
72604;DHT22;60645;56.968;24.196;2024-03-08T15:29:10;-0.10;86.10
72604;DHT22;60645;56.968;24.196;2024-03-08T15:31:39;0.00;86.80
72604;DHT22;60645;56.968;24.196;2024-03-08T15:34:07;-0.20;86.30
72604;DHT22;60645;56.968;24.196;2024-03-08T15:36:35;-0.20;86.30
72604;DHT22;60645;56.968;24.196;2024-03-08T15:39:02;-0.30;87.10